Time;durP1;ratioP1;P1;durP2;ratioP2;P2;SDS_P1;SDS_P2;PMS_P1;PMS_P2;Temp;Humidity;BMP_temperature;BMP_pressure;BME280_temperature;BME280_humidity;BME280_pressure;Samples;Min_cycle;Max_cycle;Signal;HPM_P1;HPM_P2
2023/05/18 00:02:20;;;;;;;9.20;3.40;;;21.90;64.00;;;;;;221747;1267;24218;-42
2023/05/18 00:07:24;;;;;;;9.90;3.40;;;21.90;63.80;;;;;;221653;1264;25268;-42
2023/05/18 00:12:28;;;;;;;6.50;3.60;;;21.90;63.80;;;;;;221805;1248;23890;-45
2023/05/18 00:17:32;;;;;;;4.40;3.90;;;21.80;63.60;;;;;;221627;1263;22557;-45
2023/05/18 00:22:41;;;;;;;6.70;3.30;;;21.80;64.00;;;;;;221906;1261;22641;-46
2023/05/18 00:27:47;;;;;;;4.80;3.20;;;21.90;64.00;;;;;;221802;1263;24330;-44
2023/05/18 00:32:54;;;;;;;4.00;2.90;;;21.90;63.70;;;;;;221818;1257;22547;-45
2023/05/18 00:37:58;;;;;;;4.40;3.00;;;21.90;63.60;;;;;;221746;1264;22785;-45
2023/05/18 00:43:03;;;;;;;4.80;2.80;;;21.90;63.80;;;;;;221792;1256;24384;-44
2023/05/18 00:48:07;;;;;;;4.30;3.20;;;21.90;63.50;;;;;;221940;1264;22618;-44
2023/05/18 00:53:11;;;;;;;3.90;3.00;;;21.90;63.50;;;;;;221662;1264;23899;-45
2023/05/18 00:58:16;;;;;;;5.00;3.30;;;22.20;63.20;;;;;;221924;1266;24288;-46
2023/05/18 01:03:20;;;;;;;4.00;2.90;;;22.40;62.60;;;;;;221956;1264;24209;-50
2023/05/18 01:08:26;;;;;;;6.10;2.60;;;22.60;62.00;;;;;;221957;1257;24219;-45
2023/05/18 01:14:02;;;;;;;4.70;2.90;;;22.80;61.60;;;;;;221898;1256;24337;-46
2023/05/18 01:19:27;;;;;;;3.70;2.80;;;22.90;61.40;;;;;;221979;1256;25255;-44
2023/05/18 01:24:41;;;;;;;2.70;2.50;;;23.00;61.10;;;;;;221726;1266;22509;-46
2023/05/18 01:29:47;;;;;;;4.40;2.80;;;23.00;60.90;;;;;;221737;1263;24314;-48
2023/05/18 01:34:51;;;;;;;3.50;2.60;;;23.10;60.70;;;;;;222133;1263;22591;-45
2023/05/18 01:39:57;;;;;;;4.40;2.80;;;23.10;60.50;;;;;;221934;1258;24189;-45
2023/05/18 01:45:11;;;;;;;4.40;2.60;;;23.20;60.30;;;;;;222081;1258;22547;-44
2023/05/18 01:50:26;;;;;;;4.10;2.80;;;23.30;60.60;;;;;;221478;1256;25642;-42
2023/05/18 01:55:32;;;;;;;3.10;2.50;;;23.30;60.00;;;;;;221571;1259;24244;-42
2023/05/18 02:00:36;;;;;;;4.40;2.70;;;23.40;59.80;;;;;;221621;1264;23016;-45
2023/05/18 02:05:40;;;;;;;4.40;2.70;;;23.40;59.60;;;;;;221653;1258;22697;-44
2023/05/18 02:10:44;;;;;;;3.80;2.80;;;23.40;60.00;;;;;;221431;1259;489511;-47
2023/05/18 02:15:49;;;;;;;2.80;2.60;;;23.30;59.70;;;;;;221862;1260;23116;-43
2023/05/18 02:20:59;;;;;;;3.50;2.40;;;23.20;59.80;;;;;;221950;1265;25355;-42
2023/05/18 02:26:03;;;;;;;3.40;2.40;;;23.20;60.10;;;;;;221824;1264;23157;-44
2023/05/18 02:31:10;;;;;;;3.10;2.20;;;23.20;60.00;;;;;;222026;1249;22517;-44
2023/05/18 02:36:17;;;;;;;3.50;2.50;;;23.20;60.30;;;;;;221807;1247;24267;-48
2023/05/18 02:41:22;;;;;;;3.70;2.70;;;23.10;60.30;;;;;;222181;1267;23022;-45
2023/05/18 02:46:26;;;;;;;2.80;2.60;;;23.00;60.60;;;;;;221691;1261;22821;-51
2023/05/18 02:51:31;;;;;;;2.80;2.10;;;22.90;60.80;;;;;;221775;1258;24025;-49
2023/05/18 02:56:37;;;;;;;9.30;2.60;;;22.90;61.00;;;;;;221827;1266;22512;-44
2023/05/18 03:01:55;;;;;;;7.30;2.50;;;22.80;61.20;;;;;;222186;1256;22522;-44
2023/05/18 03:07:01;;;;;;;3.30;2.50;;;22.80;60.90;;;;;;222025;1266;24372;-46
2023/05/18 03:12:06;;;;;;;3.00;2.40;;;22.70;61.30;;;;;;222226;1247;22540;-43
2023/05/18 03:17:10;;;;;;;4.10;3.00;;;22.70;61.10;;;;;;221784;1259;22520;-47
2023/05/18 03:22:14;;;;;;;2.30;2.10;;;22.60;61.10;;;;;;221654;1267;24231;-44
2023/05/18 03:27:24;;;;;;;2.90;2.30;;;22.60;61.00;;;;;;221775;1258;22631;-45
2023/05/18 03:32:30;;;;;;;7.30;2.40;;;22.60;61.80;;;;;;221764;1259;25341;-47
2023/05/18 03:37:35;;;;;;;2.50;1.90;;;22.50;61.30;;;;;;221873;1259;25213;-44
2023/05/18 03:42:40;;;;;;;2.30;2.10;;;22.50;61.30;;;;;;222003;1267;22531;-43
2023/05/18 03:47:44;;;;;;;3.70;2.10;;;22.50;61.20;;;;;;221743;1256;25465;-43
2023/05/18 03:52:48;;;;;;;2.70;2.30;;;22.50;61.50;;;;;;222235;1265;25397;-44
2023/05/18 03:57:52;;;;;;;2.40;2.10;;;22.40;61.30;;;;;;221865;1259;25272;-47
2023/05/18 04:02:57;;;;;;;3.00;2.20;;;22.40;61.40;;;;;;222101;1266;22507;-44
2023/05/18 04:08:01;;;;;;;3.20;2.00;;;22.30;61.60;;;;;;221952;1257;22518;-45
2023/05/18 04:13:06;;;;;;;2.90;2.40;;;22.30;61.30;;;;;;221916;1259;22526;-46
2023/05/18 04:18:12;;;;;;;3.80;2.20;;;22.30;61.50;;;;;;221781;1256;24250;-44
2023/05/18 04:23:18;;;;;;;2.70;1.70;;;22.30;61.40;;;;;;222049;1265;22604;-45
2023/05/18 04:28:22;;;;;;;2.60;2.00;;;22.20;61.30;;;;;;222093;1263;24232;-45
2023/05/18 04:33:28;;;;;;;2.70;2.00;;;22.20;61.30;;;;;;221894;1265;22541;-47
2023/05/18 04:38:33;;;;;;;2.00;1.80;;;22.20;61.40;;;;;;221850;1266;22514;-42
2023/05/18 04:43:38;;;;;;;1.70;1.60;;;22.10;61.70;;;;;;221814;1255;24199;-44
2023/05/18 04:48:42;;;;;;;2.10;1.90;;;22.20;61.40;;;;;;221869;1264;24246;-43
2023/05/18 04:53:49;;;;;;;2.30;2.10;;;22.20;61.40;;;;;;222026;1266;25368;-44
2023/05/18 04:58:58;;;;;;;2.30;2.00;;;22.10;61.30;;;;;;221932;1266;24342;-43
2023/05/18 05:04:05;;;;;;;2.70;1.90;;;22.10;61.30;;;;;;221733;1265;22757;-43
2023/05/18 05:09:12;;;;;;;3.50;2.10;;;22.10;61.40;;;;;;221637;1265;25367;-43
2023/05/18 05:14:16;;;;;;;4.10;2.00;;;22.00;61.30;;;;;;221624;1271;24195;-44
2023/05/18 05:19:21;;;;;;;2.90;2.20;;;22.00;61.30;;;;;;221631;1260;22518;-43
2023/05/18 05:24:25;;;;;;;3.10;2.40;;;22.00;61.30;;;;;;221804;1266;25433;-45
2023/05/18 05:29:30;;;;;;;1.90;1.80;;;22.00;61.20;;;;;;221802;1256;22575;-43
2023/05/18 05:34:36;;;;;;;1.80;1.70;;;22.10;61.30;;;;;;221905;1257;22618;-43
2023/05/18 05:39:41;;;;;;;2.10;1.90;;;22.10;61.50;;;;;;221843;1256;22514;-47
2023/05/18 05:44:45;;;;;;;2.10;1.60;;;22.10;61.50;;;;;;221904;1267;22523;-47
2023/05/18 05:49:50;;;;;;;2.00;1.80;;;22.00;61.30;;;;;;221914;1256;25347;-50
2023/05/18 05:54:55;;;;;;;2.20;1.50;;;22.00;61.30;;;;;;221958;1256;25319;-47
2023/05/18 06:00:00;;;;;;;3.30;1.50;;;21.90;61.40;;;;;;221982;1256;24234;-54
2023/05/18 06:05:07;;;;;;;5.20;1.80;;;21.90;61.50;;;;;;221829;1259;24335;-54
2023/05/18 06:10:11;;;;;;;3.80;2.00;;;22.00;61.50;;;;;;221791;1256;24224;-52
2023/05/18 06:15:17;;;;;;;4.10;2.20;;;22.10;61.90;;;;;;222144;1256;24266;-52
2023/05/18 06:20:21;;;;;;;9.20;1.90;;;22.10;61.60;;;;;;221921;1259;22666;-51
2023/05/18 06:25:26;;;;;;;2.30;1.70;;;22.10;61.70;;;;;;221928;1259;22643;-52
2023/05/18 06:30:41;;;;;;;5.80;2.10;;;22.10;62.40;;;;;;221989;1254;22517;-49
2023/05/18 06:35:51;;;;;;;5.30;2.10;;;22.00;61.90;;;;;;221825;1259;25385;-50
2023/05/18 06:40:55;;;;;;;4.50;1.90;;;22.10;62.20;;;;;;221753;1261;24243;-52
2023/05/18 06:46:00;;;;;;;7.40;2.40;;;22.10;62.30;;;;;;222049;1256;24386;-49
2023/05/18 06:51:11;;;;;;;11.60;2.30;;;22.20;62.20;;;;;;221779;1257;25346;-50
2023/05/18 06:56:15;;;;;;;3.70;1.90;;;22.20;62.10;;;;;;221751;1263;22632;-50
2023/05/18 07:01:20;;;;;;;5.10;2.10;;;22.20;62.00;;;;;;222031;1250;24177;-50
2023/05/18 07:06:24;;;;;;;5.10;2.00;;;22.20;62.30;;;;;;221576;1265;24176;-49
2023/05/18 07:11:29;;;;;;;7.30;1.70;;;22.20;61.10;;;;;;223369;1266;25409;-49
2023/05/18 07:16:34;;;;;;;3.40;1.40;;;22.20;60.90;;;;;;221808;1249;22538;-52
2023/05/18 07:21:38;;;;;;;7.10;2.90;;;22.10;60.50;;;;;;221903;1257;24295;-53
2023/05/18 07:26:42;;;;;;;7.40;2.70;;;22.10;59.50;;;;;;221757;1263;22511;-50
2023/05/18 07:31:49;;;;;;;5.10;2.30;;;22.00;60.30;;;;;;221850;1261;22521;-54
2023/05/18 07:37:02;;;;;;;7.10;2.50;;;22.00;60.50;;;;;;221781;1265;22521;-52
2023/05/18 07:42:07;;;;;;;6.20;2.80;;;22.10;60.60;;;;;;221833;1264;22511;-54
2023/05/18 07:47:11;;;;;;;5.90;2.50;;;22.10;60.30;;;;;;221923;1256;25621;-49
2023/05/18 07:52:16;;;;;;;6.90;2.50;;;22.10;60.10;;;;;;221938;1262;22615;-47
2023/05/18 07:57:20;;;;;;;5.80;1.90;;;22.10;60.10;;;;;;222001;1267;22525;-53
2023/05/18 08:02:24;;;;;;;4.60;2.20;;;22.10;60.10;;;;;;221945;1263;22520;-51
2023/05/18 08:07:31;;;;;;;2.80;1.80;;;22.10;60.00;;;;;;221908;1257;24197;-52
2023/05/18 08:12:35;;;;;;;5.90;2.10;;;22.10;59.90;;;;;;221855;1257;25393;-50
2023/05/18 08:17:40;;;;;;;5.20;1.80;;;22.10;59.70;;;;;;221786;1271;26499;-52
2023/05/18 08:22:44;;;;;;;5.00;1.80;;;22.20;59.50;;;;;;221904;1259;24218;-50
2023/05/18 08:27:48;;;;;;;2.90;2.00;;;22.20;59.40;;;;;;222013;1257;22518;-53
2023/05/18 08:32:52;;;;;;;2.80;1.80;;;22.30;59.90;;;;;;221802;1253;24257;-52
2023/05/18 08:37:57;;;;;;;5.60;1.80;;;22.30;59.10;;;;;;221729;1258;25275;-50
2023/05/18 08:43:21;;;;;;;3.00;1.90;;;22.40;58.90;;;;;;221824;1271;22518;-52
2023/05/18 08:48:27;;;;;;;3.20;1.80;;;22.30;59.10;;;;;;221830;1259;24654;-50
2023/05/18 08:53:32;;;;;;;1.90;1.70;;;22.40;58.80;;;;;;221833;1270;22645;-49
2023/05/18 08:58:47;;;;;;;3.60;2.80;;;22.50;58.70;;;;;;221761;1262;24177;-51
2023/05/18 09:03:52;;;;;;;3.20;1.70;;;22.60;58.60;;;;;;221949;1255;22518;-52
2023/05/18 09:08:57;;;;;;;2.90;1.60;;;22.60;59.00;;;;;;221860;1259;22784;-51
2023/05/18 09:14:01;;;;;;;2.50;1.70;;;22.40;58.70;;;;;;221881;1268;24249;-56
2023/05/18 09:19:05;;;;;;;1.90;1.60;;;22.40;58.50;;;;;;221977;1259;22533;-48
2023/05/18 09:24:10;;;;;;;2.10;1.80;;;22.50;58.70;;;;;;221747;1259;22634;-53
2023/05/18 09:29:19;;;;;;;3.00;2.00;;;22.40;58.60;;;;;;221938;1247;22525;-46
2023/05/18 09:34:23;;;;;;;3.30;1.60;;;22.40;58.40;;;;;;221886;1259;22616;-51
2023/05/18 09:39:27;;;;;;;3.20;1.40;;;22.50;58.30;;;;;;222014;1260;22747;-52
2023/05/18 09:44:35;;;;;;;2.70;1.40;;;22.40;58.70;;;;;;221807;1263;22520;-55
2023/05/18 09:49:40;;;;;;;6.20;1.90;;;22.40;59.00;;;;;;221618;1258;25967;-58
2023/05/18 09:54:56;;;;;;;5.30;1.80;;;22.40;58.80;;;;;;221735;1269;25390;-50
2023/05/18 10:00:09;;;;;;;1.60;1.40;;;22.60;58.60;;;;;;221713;1261;25261;-54
2023/05/18 10:05:26;;;;;;;2.00;1.50;;;22.50;58.50;;;;;;221588;1260;24264;-52
2023/05/18 10:10:30;;;;;;;2.70;1.90;;;22.60;58.00;;;;;;221642;1265;24200;-49
2023/05/18 10:15:34;;;;;;;2.30;1.60;;;22.50;58.10;;;;;;221644;1259;22642;-53
2023/05/18 10:20:39;;;;;;;1.90;1.50;;;22.50;58.40;;;;;;221646;1257;22515;-50
2023/05/18 10:25:45;;;;;;;1.80;1.60;;;22.60;57.60;;;;;;221689;1260;22528;-49
2023/05/18 10:30:51;;;;;;;2.50;1.60;;;22.70;58.10;;;;;;221721;1259;22517;-48
2023/05/18 10:35:55;;;;;;;1.70;1.60;;;22.70;57.20;;;;;;221522;1267;25463;-50
2023/05/18 10:41:01;;;;;;;3.70;1.70;;;22.70;57.10;;;;;;221667;1270;22697;-50
2023/05/18 10:46:08;;;;;;;1.70;1.60;;;22.70;57.00;;;;;;221664;1266;23803;-49
2023/05/18 10:51:14;;;;;;;2.50;1.80;;;22.70;57.10;;;;;;221507;1259;22521;-50
2023/05/18 10:56:18;;;;;;;1.70;1.60;;;22.60;57.10;;;;;;221665;1257;22603;-49
2023/05/18 11:01:22;;;;;;;2.60;1.60;;;22.60;57.10;;;;;;221637;1259;23899;-52
2023/05/18 11:06:27;;;;;;;2.70;1.60;;;22.60;57.10;;;;;;221766;1259;24100;-52
2023/05/18 11:11:51;;;;;;;3.60;1.70;;;22.60;57.40;;;;;;221626;1269;24194;-46
2023/05/18 11:17:18;;;;;;;2.10;1.30;;;22.70;57.40;;;;;;221806;1256;22517;-52
2023/05/18 11:22:22;;;;;;;1.60;1.50;;;22.70;57.20;;;;;;221877;1260;23940;-56
2023/05/18 11:27:28;;;;;;;1.90;1.60;;;22.70;57.10;;;;;;221578;1258;25351;-55
2023/05/18 11:32:32;;;;;;;1.80;1.40;;;22.70;57.10;;;;;;221636;1264;22696;-50
2023/05/18 11:37:45;;;;;;;2.20;1.40;;;22.70;57.20;;;;;;221542;1268;25282;-53
2023/05/18 11:42:57;;;;;;;2.00;1.50;;;22.70;57.00;;;;;;221794;1256;22645;-50
2023/05/18 11:48:02;;;;;;;;;;;22.80;56.80;;;;;;221791;1269;24279;-53
2023/05/18 11:53:06;;;;;;;2.90;1.60;;;22.70;56.70;;;;;;222006;1257;22525;-49
2023/05/18 11:58:17;;;;;;;1.80;1.60;;;22.80;56.60;;;;;;221967;1259;22516;-57
2023/05/18 12:03:25;;;;;;;1.30;1.20;;;22.80;56.50;;;;;;221901;1266;25214;-56
2023/05/18 12:08:29;;;;;;;1.50;1.20;;;22.90;56.50;;;;;;221746;1263;23451;-53
2023/05/18 12:13:34;;;;;;;1.20;1.10;;;22.90;56.70;;;;;;222050;1256;24740;-54
2023/05/18 12:18:38;;;;;;;2.80;1.40;;;22.90;56.20;;;;;;221818;1269;23016;-50
2023/05/18 12:23:42;;;;;;;1.90;1.00;;;22.90;56.20;;;;;;221864;1264;23129;-49
2023/05/18 12:28:47;;;;;;;1.30;1.20;;;22.90;56.20;;;;;;221861;1267;22475;-50
2023/05/18 12:33:53;;;;;;;2.00;1.50;;;22.90;56.40;;;;;;222126;1269;24250;-50
2023/05/18 12:39:01;;;;;;;2.30;1.30;;;22.90;56.00;;;;;;221950;1247;24040;-50
2023/05/18 12:44:05;;;;;;;2.00;1.30;;;23.00;56.00;;;;;;221868;1271;24170;-49
2023/05/18 12:49:10;;;;;;;1.20;1.10;;;23.00;55.80;;;;;;221877;1270;26568;-48
2023/05/18 12:54:14;;;;;;;3.40;1.90;;;22.90;55.70;;;;;;221890;1250;22535;-45
2023/05/18 12:59:19;;;;;;;2.30;2.10;;;22.90;54.70;;;;;;221674;1269;22913;-48
2023/05/18 13:04:34;;;;;;;2.70;1.50;;;22.90;55.30;;;;;;221872;1267;25504;-51
2023/05/18 13:09:44;;;;;;;3.00;1.20;;;22.90;55.30;;;;;;221790;1256;24240;-50
2023/05/18 13:14:52;;;;;;;1.40;1.30;;;23.00;55.40;;;;;;221813;1260;22630;-50
2023/05/18 13:19:56;;;;;;;1.80;1.70;;;22.90;55.80;;;;;;221815;1260;24192;-47
2023/05/18 13:25:01;;;;;;;2.00;1.00;;;23.00;55.60;;;;;;221932;1271;22804;-48
2023/05/18 13:30:06;;;;;;;2.60;1.60;;;22.90;55.30;;;;;;221666;1268;22537;-51
2023/05/18 13:35:12;;;;;;;1.30;1.20;;;22.90;55.50;;;;;;221938;1266;26699;-53
2023/05/18 13:40:18;;;;;;;1.80;1.70;;;22.90;55.40;;;;;;221857;1266;22630;-47
2023/05/18 13:45:22;;;;;;;4.30;1.50;;;22.90;55.80;;;;;;221721;1268;22530;-50
2023/05/18 13:50:26;;;;;;;3.90;1.20;;;23.00;55.70;;;;;;221903;1262;22533;-49
2023/05/18 13:55:31;;;;;;;1.80;1.30;;;23.00;55.20;;;;;;221779;1271;25956;-47
2023/05/18 14:00:36;;;;;;;2.20;1.30;;;23.00;55.30;;;;;;221728;1269;22515;-45
2023/05/18 14:05:41;;;;;;;1.40;1.30;;;23.00;55.10;;;;;;221877;1264;22635;-52
2023/05/18 14:10:45;;;;;;;1.30;1.20;;;23.00;55.40;;;;;;221985;1264;263081;-48
2023/05/18 14:15:49;;;;;;;1.40;1.30;;;23.00;55.30;;;;;;221925;1258;24212;-49
2023/05/18 14:20:54;;;;;;;2.50;1.40;;;23.00;55.30;;;;;;221874;1265;24187;-50
2023/05/18 14:25:58;;;;;;;1.70;1.30;;;22.90;55.20;;;;;;222074;1257;22532;-48
2023/05/18 14:31:04;;;;;;;1.20;1.10;;;22.90;55.60;;;;;;221806;1266;22639;-49
2023/05/18 14:36:08;;;;;;;1.30;1.20;;;22.90;55.20;;;;;;221752;1263;24300;-48
2023/05/18 14:41:13;;;;;;;1.30;0.80;;;22.90;55.20;;;;;;221711;1265;23887;-45
2023/05/18 14:46:18;;;;;;;1.40;1.10;;;22.90;55.20;;;;;;221761;1261;24247;-48
2023/05/18 14:51:23;;;;;;;1.50;1.30;;;22.90;55.10;;;;;;221724;1266;23681;-47
2023/05/18 14:56:27;;;;;;;1.50;0.90;;;22.90;55.20;;;;;;221721;1269;25467;-45
2023/05/18 15:01:33;;;;;;;1.20;1.10;;;22.90;55.10;;;;;;221625;1265;22692;-51
2023/05/18 15:06:37;;;;;;;1.80;1.10;;;22.90;55.10;;;;;;221809;1263;22537;-48
2023/05/18 15:11:41;;;;;;;2.30;1.10;;;22.90;55.40;;;;;;221992;1256;22562;-49
2023/05/18 15:16:45;;;;;;;8.10;1.90;;;22.90;55.30;;;;;;221933;1270;24248;-46
2023/05/18 15:21:53;;;;;;;8.70;1.80;;;22.90;55.00;;;;;;221722;1269;22516;-50
2023/05/18 15:26:58;;;;;;;5.40;1.40;;;23.00;55.50;;;;;;221557;1261;24238;-49
2023/05/18 15:32:02;;;;;;;7.20;1.80;;;23.00;56.20;;;;;;222541;1271;22526;-52
2023/05/18 15:37:07;;;;;;;6.70;1.50;;;23.10;58.10;;;;;;221907;1269;24019;-48
2023/05/18 15:42:11;;;;;;;7.40;1.70;;;23.00;58.30;;;;;;221949;1266;22550;-51
2023/05/18 15:47:16;;;;;;;15.50;2.20;;;23.00;57.90;;;;;;221686;1268;24199;-47
2023/05/18 15:52:21;;;;;;;17.30;3.00;;;23.10;59.00;;;;;;221831;1259;24208;-48
2023/05/18 15:57:25;;;;;;;14.20;3.10;;;23.20;60.60;;;;;;221739;1261;22664;-47
2023/05/18 16:02:29;;;;;;;8.00;2.00;;;23.40;58.60;;;;;;221825;1259;22517;-51
2023/05/18 16:07:34;;;;;;;6.50;1.80;;;23.30;60.20;;;;;;221868;1271;23398;-55
2023/05/18 16:12:38;;;;;;;6.80;2.40;;;23.30;59.40;;;;;;221891;1270;24211;-58
2023/05/18 16:17:42;;;;;;;7.30;2.10;;;23.40;59.30;;;;;;221774;1258;23855;-48
2023/05/18 16:22:46;;;;;;;8.50;2.70;;;23.30;59.60;;;;;;221737;1264;24187;-49
2023/05/18 16:27:50;;;;;;;6.70;2.30;;;23.40;59.50;;;;;;221858;1257;22555;-53
2023/05/18 16:32:54;;;;;;;5.40;2.90;;;23.40;59.60;;;;;;221710;1271;22514;-50
2023/05/18 16:37:59;;;;;;;8.60;2.10;;;23.40;58.90;;;;;;221653;1270;22504;-48
2023/05/18 16:43:03;;;;;;;7.90;2.20;;;23.50;58.70;;;;;;221597;1266;22777;-48
2023/05/18 16:48:07;;;;;;;7.50;1.90;;;23.50;58.30;;;;;;221584;1267;25373;-49
2023/05/18 16:53:11;;;;;;;8.90;2.30;;;23.50;58.40;;;;;;221684;1266;22580;-48
2023/05/18 16:58:15;;;;;;;5.20;1.70;;;23.40;58.10;;;;;;221657;1264;25322;-52
2023/05/18 17:03:20;;;;;;;14.10;2.30;;;23.40;58.50;;;;;;221656;1266;24302;-49
2023/05/18 17:08:25;;;;;;;10.70;2.90;;;23.30;58.30;;;;;;223712;1257;25280;-49
2023/05/18 17:13:29;;;;;;;12.70;2.20;;;23.40;58.10;;;;;;221713;1258;24215;-50
2023/05/18 17:18:33;;;;;;;8.30;2.00;;;23.30;57.70;;;;;;221812;1269;22561;-47
2023/05/18 17:23:37;;;;;;;13.20;2.30;;;23.30;57.30;;;;;;223707;1263;24199;-51
2023/05/18 17:28:41;;;;;;;5.80;1.90;;;23.30;56.90;;;;;;221574;1259;22582;-55
2023/05/18 17:33:46;;;;;;;3.60;1.70;;;23.20;56.90;;;;;;221922;1266;22518;-49
2023/05/18 17:38:51;;;;;;;7.10;2.40;;;23.10;56.90;;;;;;221821;1267;25327;-50
2023/05/18 17:43:55;;;;;;;5.60;1.80;;;23.10;56.70;;;;;;221855;1257;22729;-51
2023/05/18 17:49:03;;;;;;;4.30;1.70;;;23.10;56.40;;;;;;221758;1258;22547;-51
2023/05/18 17:54:08;;;;;;;2.80;1.50;;;23.00;56.60;;;;;;221768;1258;24317;-50
2023/05/18 17:59:12;;;;;;;5.30;1.60;;;23.00;56.70;;;;;;221905;1261;24219;-52
2023/05/18 18:04:17;;;;;;;4.00;2.00;;;23.00;56.20;;;;;;221838;1271;24215;-49
2023/05/18 18:09:21;;;;;;;9.20;1.80;;;23.00;56.20;;;;;;221844;1257;22515;-51
2023/05/18 18:14:25;;;;;;;7.60;2.00;;;22.90;56.70;;;;;;222058;1264;24068;-54
2023/05/18 18:19:30;;;;;;;7.20;1.70;;;22.90;57.10;;;;;;221817;1257;23930;-49
2023/05/18 18:24:35;;;;;;;9.00;2.20;;;23.00;56.60;;;;;;222020;1256;22640;-53
2023/05/18 18:29:39;;;;;;;31.90;3.10;;;23.00;56.80;;;;;;222077;1267;24195;-48
2023/05/18 18:34:44;;;;;;;6.10;1.90;;;23.10;56.70;;;;;;221937;1260;25344;-48
2023/05/18 18:39:48;;;;;;;8.70;1.80;;;23.10;56.90;;;;;;221875;1267;24683;-55
2023/05/18 18:44:55;;;;;;;8.30;1.90;;;23.10;56.50;;;;;;221731;1257;23173;-51
2023/05/18 18:50:01;;;;;;;13.00;2.50;;;23.10;56.00;;;;;;221531;1261;23686;-53
2023/05/18 18:55:06;;;;;;;7.20;2.10;;;23.00;56.80;;;;;;221661;1248;25322;-49
2023/05/18 19:00:12;;;;;;;16.70;2.20;;;23.00;57.70;;;;;;221696;1261;25386;-53
2023/05/18 19:05:23;;;;;;;14.30;2.30;;;23.10;57.40;;;;;;221673;1257;24248;-53
2023/05/18 19:10:29;;;;;;;11.90;2.10;;;23.30;57.30;;;;;;221573;1260;25294;-50
2023/05/18 19:15:35;;;;;;;4.50;1.90;;;23.30;57.40;;;;;;221674;1259;22513;-49
2023/05/18 19:20:40;;;;;;;12.00;2.90;;;23.20;56.80;;;;;;221749;1257;24742;-52
2023/05/18 19:25:44;;;;;;;12.60;2.40;;;23.20;57.60;;;;;;221756;1267;22577;-51
2023/05/18 19:30:49;;;;;;;12.80;2.30;;;23.10;58.20;;;;;;221821;1265;25341;-47
2023/05/18 19:35:54;;;;;;;10.50;2.90;;;23.20;58.40;;;;;;221872;1265;23006;-47
2023/05/18 19:40:58;;;;;;;11.00;2.00;;;23.10;58.60;;;;;;221938;1257;25551;-49
2023/05/18 19:46:02;;;;;;;7.30;2.10;;;23.00;58.00;;;;;;221811;1264;22736;-48
2023/05/18 19:51:06;;;;;;;12.10;2.00;;;23.00;57.70;;;;;;221762;1258;22623;-48
2023/05/18 19:56:10;;;;;;;6.20;2.10;;;23.00;58.10;;;;;;221729;1258;24886;-45
2023/05/18 20:01:17;;;;;;;9.60;2.30;;;23.00;57.90;;;;;;221672;1259;25413;-49
2023/05/18 20:06:21;;;;;;;12.70;2.10;;;23.00;58.00;;;;;;221757;1267;22795;-48
2023/05/18 20:11:25;;;;;;;17.00;2.80;;;23.00;58.50;;;;;;221748;1257;22550;-49
2023/05/18 20:16:32;;;;;;;6.20;1.80;;;22.90;58.00;;;;;;221650;1264;23177;-50
2023/05/18 20:21:37;;;;;;;3.30;1.80;;;22.90;58.60;;;;;;221646;1259;22735;-52
2023/05/18 20:26:41;;;;;;;6.60;2.60;;;22.90;58.80;;;;;;221692;1257;23926;-49
2023/05/18 20:31:45;;;;;;;7.80;1.80;;;22.90;58.70;;;;;;221818;1257;24187;-49
2023/05/18 20:36:49;;;;;;;4.40;1.50;;;22.80;58.80;;;;;;221670;1259;22577;-49
2023/05/18 20:41:54;;;;;;;2.90;1.80;;;22.80;58.80;;;;;;221514;1258;25683;-49
2023/05/18 20:46:59;;;;;;;3.90;1.70;;;22.80;58.70;;;;;;221882;1258;25916;-50
2023/05/18 20:52:04;;;;;;;5.30;1.60;;;22.70;58.70;;;;;;221841;1256;22985;-48
2023/05/18 20:57:08;;;;;;;3.30;1.50;;;22.70;58.80;;;;;;221759;1271;22801;-50
2023/05/18 21:02:12;;;;;;;5.00;1.50;;;22.70;58.80;;;;;;221760;1258;23018;-49
2023/05/18 21:07:16;;;;;;;7.00;1.70;;;22.70;58.70;;;;;;221767;1256;22686;-51
2023/05/18 21:12:21;;;;;;;2.20;1.10;;;22.70;58.80;;;;;;221751;1257;24258;-48
2023/05/18 21:17:25;;;;;;;2.70;1.50;;;22.60;58.80;;;;;;221671;1256;23918;-48
2023/05/18 21:22:30;;;;;;;3.70;1.50;;;22.60;58.90;;;;;;221730;1256;25465;-51
2023/05/18 21:27:36;;;;;;;1.80;1.40;;;22.60;58.80;;;;;;221747;1257;23010;-52
2023/05/18 21:32:43;;;;;;;3.10;1.50;;;22.60;59.10;;;;;;222149;1256;24170;-51
2023/05/18 21:37:48;;;;;;;3.50;1.70;;;22.60;58.60;;;;;;221956;1259;22528;-46
2023/05/18 21:42:52;;;;;;;3.70;1.20;;;22.60;59.00;;;;;;222143;1257;24304;-48
2023/05/18 21:47:56;;;;;;;3.10;1.60;;;22.60;58.60;;;;;;221637;1264;22524;-51
2023/05/18 21:53:04;;;;;;;3.00;1.60;;;22.80;59.00;;;;;;221765;1256;24242;-51
2023/05/18 21:58:08;;;;;;;9.00;2.00;;;22.60;59.60;;;;;;221837;1265;22548;-55
2023/05/18 22:03:12;;;;;;;5.60;1.90;;;22.60;59.80;;;;;;221807;1260;24355;-49
2023/05/18 22:08:16;;;;;;;7.40;1.80;;;22.70;59.80;;;;;;221840;1256;22508;-57
2023/05/18 22:13:20;;;;;;;3.40;2.00;;;22.60;59.80;;;;;;221839;1263;22654;-48
2023/05/18 22:18:25;;;;;;;4.10;1.50;;;22.60;59.80;;;;;;221733;1270;23917;-52
2023/05/18 22:23:30;;;;;;;4.60;1.60;;;22.60;59.70;;;;;;221858;1256;24246;-52
2023/05/18 22:28:34;;;;;;;5.40;1.60;;;22.50;59.70;;;;;;221777;1265;22529;-56
2023/05/18 22:33:38;;;;;;;6.10;2.20;;;22.50;59.60;;;;;;221837;1256;22520;-52
2023/05/18 22:38:43;;;;;;;4.60;1.80;;;22.50;59.60;;;;;;221850;1256;22596;-54
2023/05/18 22:43:47;;;;;;;26.00;12.10;;;22.50;59.60;;;;;;221978;1256;22523;-46
2023/05/18 22:48:52;;;;;;;4.20;1.50;;;22.50;59.50;;;;;;221618;1265;22531;-45
2023/05/18 22:53:56;;;;;;;3.40;1.60;;;22.40;59.50;;;;;;221847;1259;22515;-44
2023/05/18 22:59:00;;;;;;;5.50;1.60;;;22.40;59.30;;;;;;221433;1263;22514;-47
2023/05/18 23:04:05;;;;;;;1.80;1.50;;;22.50;59.20;;;;;;221482;1256;22564;-43
2023/05/18 23:09:09;;;;;;;2.00;1.40;;;22.50;59.10;;;;;;221559;1265;24218;-44
2023/05/18 23:14:13;;;;;;;8.70;1.70;;;22.40;58.90;;;;;;221808;1267;22532;-47
2023/05/18 23:19:18;;;;;;;3.50;1.90;;;22.40;59.00;;;;;;221631;1257;22515;-49
2023/05/18 23:24:22;;;;;;;3.10;1.90;;;22.40;59.00;;;;;;221786;1270;25272;-47
2023/05/18 23:29:27;;;;;;;7.40;2.10;;;22.30;59.20;;;;;;221663;1270;23886;-48
2023/05/18 23:34:31;;;;;;;3.70;1.40;;;22.30;59.10;;;;;;221697;1259;22754;-46
2023/05/18 23:39:40;;;;;;;4.30;1.80;;;22.30;59.00;;;;;;221753;1259;25594;-47
2023/05/18 23:44:45;;;;;;;2.30;1.60;;;22.30;59.00;;;;;;221775;1264;22577;-45
2023/05/18 23:49:50;;;;;;;5.30;2.20;;;22.30;59.00;;;;;;221635;1256;24325;-46
2023/05/18 23:54:55;;;;;;;3.20;1.80;;;22.30;59.00;;;;;;221809;1257;24603;-46
